Time;durP1;ratioP1;P1;durP2;ratioP2;P2;SDS_P1;SDS_P2;PMS_P1;PMS_P2;Temp;Humidity;BMP_temperature;BMP_pressure;BME280_temperature;BME280_humidity;BME280_pressure;Samples;Min_cycle;Max_cycle;Signal;HPM_P1;HPM_P2
2022/10/08 07:56:44;;;;;;;;;31.40;31.40;;;;;;;;5102869;27;13489;-68
2022/10/08 07:59:13;;;;;;;;;41.00;32.25;;;;;;;;5102701;28;13687;-69
2022/10/08 08:01:40;;;;;;;;;37.50;34.00;;;;;;;;5102624;28;13637;-69
2022/10/08 08:04:06;;;;;;;;;45.60;36.80;;;;;;;;5100953;28;14309;-68
2022/10/08 08:06:33;;;;;;;;;45.25;36.25;;;;;;;;5101050;28;13617;-68
2022/10/08 08:08:59;;;;;;;;;43.25;37.00;;;;;;;;5102745;28;14390;-69
2022/10/08 08:11:24;;;;;;;;;35.40;33.20;;;;;;;;5101085;28;13534;-68
2022/10/08 08:13:51;;;;;;;;;40.00;33.00;;;;;;;;5102378;28;13650;-68
2022/10/08 08:16:20;;;;;;;;;37.75;34.25;;;;;;;;5102367;28;13618;-68
2022/10/08 08:18:47;;;;;;;;;36.00;33.60;;;;;;;;5102321;28;13532;-68
2022/10/08 08:21:18;;;;;;;;;31.00;30.00;;;;;;;;5102493;28;13506;-68
2022/10/08 08:23:44;;;;;;;;;39.80;32.60;;;;;;;;5102061;28;13586;-68
2022/10/08 08:26:11;;;;;;;;;40.25;33.75;;;;;;;;5102054;28;13558;-67
2022/10/08 09:33:56;;;;;;;;;46.00;38.75;;;;;;;;5062651;28;13522;-68
2022/10/08 09:36:34;;;;;;;;;44.25;36.00;;;;;;;;5062534;28;13734;-67
2022/10/08 09:39:00;;;;;;;;;38.00;31.00;;;;;;;;5063792;28;13563;-69
2022/10/08 09:41:27;;;;;;;;;31.75;29.75;;;;;;;;5066026;28;10803;-69
2022/10/08 09:44:11;;;;;;;;;34.00;31.75;;;;;;;;5065852;28;10277;-69
2022/10/08 09:46:36;;;;;;;;;;;;;;;;;;5068554;28;9997;-69
2022/10/08 09:49:31;;;;;;;;;37.33;31.67;;;;;;;;5065881;28;8797;-68
2022/10/08 09:51:57;;;;;;;;;28.50;27.50;;;;;;;;5003328;28;8820;-69
2022/10/08 09:54:23;;;;;;;;;;;;;;;;;;5006246;28;8985;-69
2022/10/08 09:56:52;;;;;;;;;28.00;28.00;;;;;;;;5003328;28;8808;-69
2022/10/08 09:59:19;;;;;;;;;29.75;27.25;;;;;;;;4986840;28;8824;-69
2022/10/08 10:01:45;;;;;;;;;26.00;26.00;;;;;;;;4986826;28;8822;-68
2022/10/08 10:04:16;;;;;;;;;30.75;29.75;;;;;;;;4986693;28;8959;-68
2022/10/08 10:06:44;;;;;;;;;31.75;28.75;;;;;;;;5003067;28;8907;-69
2022/10/08 10:09:10;;;;;;;;;;;;;;;;;;5005702;28;8813;-70
2022/10/08 10:12:07;;;;;;;;;31.67;29.33;;;;;;;;5002950;28;8813;-69
2022/10/08 10:14:38;;;;;;;;;25.25;25.25;;;;;;;;4925490;29;8952;-69
2022/10/08 10:17:09;;;;;;;;;25.50;23.75;;;;;;;;4925551;29;8805;-69
2022/10/08 10:19:38;;;;;;;;;23.25;22.25;;;;;;;;4909868;29;8827;-70
2022/10/08 10:22:08;;;;;;;;;29.00;25.25;;;;;;;;4925812;29;8935;-69
2022/10/08 10:24:44;;;;;;;;;29.00;27.67;;;;;;;;4925755;29;9588;-69
2022/10/08 10:27:13;;;;;;;;;27.50;27.25;;;;;;;;4926692;28;8867;-69
2022/10/08 10:29:39;;;;;;;;;;;;;;;;;;4968853;28;8818;-68
2022/10/08 10:32:16;;;;;;;;;21.33;20.00;;;;;;;;4966572;28;8843;-68
2022/10/08 10:34:43;;;;;;;;;21.75;21.50;;;;;;;;4983616;28;8799;-68
2022/10/08 10:37:14;;;;;;;;;21.75;21.50;;;;;;;;4982906;28;8928;-68
2022/10/08 10:39:57;;;;;;;;;22.00;21.00;;;;;;;;4966460;28;8818;-69
2022/10/08 10:42:29;;;;;;;;;23.50;23.25;;;;;;;;4982830;28;8807;-69
2022/10/08 10:44:56;;;;;;;;;25.25;24.00;;;;;;;;4971248;28;8810;-69
2022/10/08 10:47:23;;;;;;;;;26.25;24.50;;;;;;;;4970185;28;8807;-69
2022/10/08 10:49:50;;;;;;;;;20.25;19.75;;;;;;;;4999709;28;8809;-70
2022/10/08 10:52:21;;;;;;;;;26.75;25.75;;;;;;;;5050986;28;8829;-69
2022/10/08 10:54:55;;;;;;;;;24.00;24.00;;;;;;;;5051022;28;8904;-69
2022/10/08 10:57:23;;;;;;;;;28.00;25.33;;;;;;;;5051212;28;8890;-69
2022/10/08 11:00:00;;;;;;;;;21.00;21.00;;;;;;;;5050906;28;8961;-70
2022/10/08 11:02:28;;;;;;;;;23.67;23.67;;;;;;;;5050758;28;8885;-69
2022/10/08 11:05:03;;;;;;;;;26.00;25.00;;;;;;;;5050782;28;8968;-69
2022/10/08 11:07:31;;;;;;;;;23.00;22.33;;;;;;;;5050701;28;9327;-69
2022/10/08 11:10:02;;;;;;;;;24.67;24.67;;;;;;;;5050549;28;9043;-68
2022/10/08 11:12:33;;;;;;;;;28.00;25.50;;;;;;;;5050418;28;9491;-68
2022/10/08 11:15:17;;;;;;;;;22.33;21.33;;;;;;;;5050641;28;9349;-68
2022/10/08 11:17:47;;;;;;;;;21.33;21.00;;;;;;;;5050313;28;9331;-69
2022/10/08 11:20:16;;;;;;;;;21.00;21.00;;;;;;;;5049218;28;9276;-69
2022/10/08 11:22:50;;;;;;;;;22.25;22.25;;;;;;;;5050330;28;9404;-69
2022/10/08 11:25:16;;;;;;;;;22.00;19.00;;;;;;;;5050436;28;9343;-69
2022/10/08 11:27:48;;;;;;;;;19.33;17.33;;;;;;;;5050267;28;9181;-69
2022/10/08 11:30:15;;;;;;;;;18.00;18.00;;;;;;;;5049038;28;8840;-69
2022/10/08 11:32:42;;;;;;;;;21.00;17.00;;;;;;;;5050658;28;9307;-70
2022/10/08 11:35:10;;;;;;;;;17.33;16.33;;;;;;;;5050273;28;9124;-69
2022/10/08 11:37:35;;;;;;;;;15.33;15.33;;;;;;;;5050225;28;9479;-69
2022/10/08 11:40:01;;;;;;;;;17.00;17.00;;;;;;;;5050110;28;9122;-69
2022/10/08 11:42:38;;;;;;;;;17.50;16.75;;;;;;;;5050199;28;8785;-69
2022/10/08 11:45:22;;;;;;;;;20.50;19.25;;;;;;;;5050520;28;8817;-69
2022/10/08 11:47:48;;;;;;;;;18.50;18.50;;;;;;;;5048816;28;9472;-68
2022/10/08 11:50:21;;;;;;;;;20.75;18.75;;;;;;;;5049794;28;9623;-68
2022/10/08 11:52:46;;;;;;;;;19.00;17.33;;;;;;;;5049792;28;9664;-69
2022/10/08 11:55:26;;;;;;;;;22.00;18.75;;;;;;;;5048794;28;9429;-68
2022/10/08 11:57:56;;;;;;;;;18.00;18.00;;;;;;;;5049863;28;8812;-68
2022/10/08 12:00:27;;;;;;;;;22.50;20.50;;;;;;;;5050777;28;9587;-69
2022/10/08 12:02:53;;;;;;;;;18.33;15.33;;;;;;;;5050843;28;9708;-69
2022/10/08 12:05:21;;;;;;;;;6.50;6.25;;;;;;;;5049887;28;9358;-69
2022/10/08 12:07:54;;;;;;;;;21.25;18.75;;;;;;;;5048586;28;9500;-69
2022/10/08 12:10:24;;;;;;;;;21.00;19.75;;;;;;;;5049594;28;10099;-69
2022/10/08 12:12:50;;;;;;;;;19.75;19.75;;;;;;;;5048598;28;10447;-69
2022/10/08 12:15:28;;;;;;;;;17.50;17.00;;;;;;;;5049946;28;9657;-69
2022/10/08 12:18:03;;;;;;;;;18.50;18.50;;;;;;;;5048389;28;8902;-69
2022/10/08 12:20:31;;;;;;;;;19.75;17.75;;;;;;;;5049829;28;9655;-69
2022/10/08 12:23:09;;;;;;;;;22.00;19.75;;;;;;;;5049674;28;9498;-68
2022/10/08 12:25:36;;;;;;;;;18.00;18.00;;;;;;;;5050071;28;9455;-69
2022/10/08 12:28:20;;;;;;;;;17.75;17.75;;;;;;;;5044949;28;14278;-68
2022/10/08 12:30:46;;;;;;;;;21.00;18.25;;;;;;;;5049438;28;9648;-68
2022/10/08 12:33:12;;;;;;;;;21.75;21.75;;;;;;;;5049733;28;9675;-69
2022/10/08 12:35:42;;;;;;;;;20.50;17.25;;;;;;;;5049606;28;9635;-67
2022/10/08 12:38:13;;;;;;;;;18.25;17.25;;;;;;;;5048083;28;8813;-68
2022/10/08 12:40:44;;;;;;;;;22.50;21.25;;;;;;;;5049218;28;9777;-68
2022/10/08 12:43:25;;;;;;;;;19.00;17.50;;;;;;;;5049352;28;9957;-68
2022/10/08 12:45:56;;;;;;;;;23.50;20.00;;;;;;;;5049267;28;9933;-68
2022/10/08 12:48:32;;;;;;;;;19.50;18.50;;;;;;;;5047916;28;9973;-69
2022/10/08 12:51:13;;;;;;;;;18.00;15.75;;;;;;;;5049222;28;9815;-68
2022/10/08 12:53:42;;;;;;;;;19.25;18.50;;;;;;;;5047741;28;9974;-69
2022/10/08 12:56:12;;;;;;;;;18.00;17.75;;;;;;;;5049068;28;9787;-69
2022/10/08 12:58:38;;;;;;;;;19.75;17.75;;;;;;;;5049018;28;9643;-68
2022/10/08 13:01:04;;;;;;;;;21.75;19.50;;;;;;;;5049090;28;9729;-68
2022/10/08 13:03:29;;;;;;;;;17.25;16.75;;;;;;;;5048932;28;8801;-68
2022/10/08 13:05:55;;;;;;;;;17.50;17.00;;;;;;;;5048859;28;10736;-69
2022/10/08 13:08:34;;;;;;;;;20.00;20.00;;;;;;;;5048947;28;8809;-68
2022/10/08 13:11:02;;;;;;;;;17.50;15.50;;;;;;;;5048783;28;10299;-68
2022/10/08 13:13:39;;;;;;;;;22.25;18.50;;;;;;;;5048818;28;9752;-68
2022/10/08 13:16:06;;;;;;;;;18.00;17.25;;;;;;;;5048923;28;9918;-69
2022/10/08 13:18:32;;;;;;;;;18.75;18.25;;;;;;;;5048782;28;9637;-69
2022/10/08 13:21:01;;;;;;;;;19.25;17.25;;;;;;;;5048723;28;9721;-68
2022/10/08 13:23:34;;;;;;;;;16.50;16.50;;;;;;;;5048577;28;9898;-68
2022/10/08 13:26:00;;;;;;;;;44.25;36.75;;;;;;;;5048887;28;9806;-69
2022/10/08 13:28:25;;;;;;;;;19.00;18.50;;;;;;;;5047222;28;11013;-69
2022/10/08 13:30:54;;;;;;;;;17.50;17.50;;;;;;;;5046632;28;8805;-69
